Disclaimer

Please do not use the information listed here in-flight or in-navigation, as they are not provided to us by the airports but are provided by volunteers, so they might be outdated.

Search


Regions


Airport information page

No radio frequency information is available.

Airport informations:
Latitude: 33° 32' 09.07" N
Longitude: 000° 14' 32.47" W
Elevation: 3855 feet - 1175 meters
Operating hours: N/A
Operating agency: Military
Timezone: N/A
Fuel: Jet A1, without icing nhibitor.

100/130 octane gasoline, leaded, MIL-L-5572F (GREEN)

Runway information:
06/24 - 11780 x 150 feet< - >3591 x 46 meters
17/35 - 9436 x 100 feet< - >2876 x 30 meters

Recent METARs:
DAAY 122300Z 20012KT CAVOK 06/01 Q1024
DAAY 130200Z 20010KT CAVOK 04/M01 Q1023
DAAY 130200Z 20010KT CAVOK 04/M01 Q1023

Airport on the map: